createdAt,value
2023-03-21T06:03:09.731Z,96055.00
2023-03-21T06:04:10.877Z,96053.00
2023-03-21T06:05:10.778Z,96053.00
2023-03-21T06:06:10.765Z,96055.00
2023-03-21T06:07:10.807Z,96055.00
2023-03-21T06:08:09.846Z,96051.00
2023-03-21T06:09:09.837Z,96051.00
2023-03-21T06:10:10.883Z,96047.00
2023-03-21T06:11:11.005Z,96045.00
2023-03-21T06:12:11.070Z,96049.00
2023-03-21T06:13:10.060Z,96047.00
2023-03-21T06:14:11.130Z,96045.00
2023-03-21T06:15:11.138Z,96049.00
2023-03-21T06:16:10.246Z,96047.00
2023-03-21T06:17:10.210Z,96049.00
2023-03-21T06:18:11.243Z,96051.00
2023-03-21T06:19:11.314Z,96051.00
2023-03-21T06:20:11.320Z,96053.00
2023-03-21T06:21:11.354Z,96053.00
2023-03-21T06:22:11.405Z,96059.00
2023-03-21T06:23:11.436Z,96055.00
2023-03-21T06:24:10.476Z,96057.00
2023-03-21T06:25:10.502Z,96057.00
2023-03-21T06:26:11.537Z,96057.00
2023-03-21T06:27:11.578Z,96055.00
2023-03-21T06:28:11.619Z,96055.00
2023-03-21T06:29:10.635Z,96055.00
2023-03-21T06:30:10.675Z,96059.00
2023-03-21T06:31:11.732Z,96059.00
2023-03-21T06:32:10.730Z,96061.00
2023-03-21T06:33:11.748Z,96061.00
2023-03-21T06:34:11.811Z,96063.00
2023-03-21T06:35:10.796Z,96057.00
2023-03-21T06:36:10.785Z,96057.00
2023-03-21T06:37:11.816Z,96057.00
2023-03-21T06:38:11.858Z,96057.00
2023-03-21T06:39:11.877Z,96059.00
2023-03-21T06:40:11.903Z,96059.00
2023-03-21T06:41:11.933Z,96063.00
2023-03-21T06:42:11.936Z,96061.00
2023-03-21T06:43:11.952Z,96061.00
2023-03-21T06:44:11.984Z,96061.00
2023-03-21T06:45:11.993Z,96063.00
2023-03-21T06:46:12.027Z,96065.00
2023-03-21T06:47:12.038Z,96065.00
2023-03-21T06:48:12.149Z,96065.00
2023-03-21T06:49:12.076Z,96065.00
2023-03-21T06:50:12.084Z,96065.00
2023-03-21T06:51:12.147Z,96069.00
2023-03-21T06:52:12.129Z,96069.00
2023-03-21T06:53:12.164Z,96069.00
2023-03-21T06:54:12.296Z,96075.00
2023-03-21T06:55:12.167Z,96071.00
2023-03-21T06:56:12.188Z,96071.00
2023-03-21T06:57:12.219Z,96069.00
2023-03-21T06:58:12.235Z,96069.00
2023-03-21T06:59:12.254Z,96071.00
2023-03-21T07:00:12.250Z,96071.00
2023-03-21T07:01:11.318Z,96069.00
2023-03-21T07:02:11.402Z,96069.00
2023-03-21T07:03:12.324Z,96069.00
2023-03-21T07:04:12.336Z,96069.00
2023-03-21T07:05:12.341Z,96069.00
2023-03-21T07:06:12.359Z,96067.00
2023-03-21T07:07:12.413Z,96069.00
2023-03-21T07:09:12.443Z,96067.00
2023-03-21T07:10:12.477Z,96069.00
2023-03-21T07:11:12.492Z,96069.00
2023-03-21T07:12:12.527Z,96069.00
2023-03-21T07:13:12.560Z,96071.00
2023-03-21T07:14:11.592Z,96067.00
2023-03-21T07:15:12.624Z,96067.00
2023-03-21T07:16:11.756Z,96067.00
2023-03-21T07:17:12.679Z,96067.00
2023-03-21T07:18:12.732Z,96065.00
2023-03-21T07:19:12.764Z,96065.00
2023-03-21T07:20:11.788Z,96063.00
2023-03-21T07:21:11.827Z,96065.00
2023-03-21T07:22:12.826Z,96061.00
2023-03-21T07:23:12.873Z,96061.00
2023-03-21T07:24:11.868Z,96061.00
2023-03-21T07:25:11.988Z,96061.00
2023-03-21T07:26:12.914Z,96057.00
2023-03-21T07:27:12.963Z,96061.00
2023-03-21T07:28:12.980Z,96061.00
2023-03-21T07:29:13.033Z,96061.00
2023-03-21T07:30:13.070Z,96061.00
2023-03-21T07:31:12.117Z,96063.00
2023-03-21T07:32:13.098Z,96061.00
2023-03-21T07:33:13.132Z,96061.00
2023-03-21T07:34:12.154Z,96061.00
2023-03-21T07:35:13.196Z,96061.00
2023-03-21T07:36:13.305Z,96061.00
2023-03-21T07:37:13.263Z,96059.00
2023-03-21T07:38:13.320Z,96059.00
2023-03-21T07:39:13.376Z,96061.00
2023-03-21T07:40:12.412Z,96057.00
2023-03-21T07:41:13.475Z,96057.00
2023-03-21T07:42:13.498Z,96057.00
2023-03-21T07:43:13.514Z,96057.00
2023-03-21T07:44:13.541Z,96061.00
2023-03-21T07:45:13.587Z,96057.00
2023-03-21T07:46:13.676Z,96061.00
2023-03-21T07:47:13.647Z,96059.00
2023-03-21T07:48:13.847Z,96059.00
2023-03-21T07:49:13.720Z,96059.00
2023-03-21T07:50:13.745Z,96067.00
2023-03-21T07:51:13.834Z,96065.00
2023-03-21T07:52:13.986Z,96063.00
2023-03-21T07:53:12.863Z,96061.00
2023-03-21T07:54:15.029Z,96067.00
2023-03-21T07:55:14.373Z,96069.00
2023-03-21T07:56:13.960Z,96071.00
2023-03-21T07:57:14.187Z,96073.00
2023-03-21T07:58:14.190Z,96071.00
2023-03-21T07:59:14.040Z,96069.00
2023-03-21T08:00:14.072Z,96079.00
2023-03-21T08:01:14.075Z,96079.00
2023-03-21T08:02:14.133Z,96081.00
2023-03-21T08:03:14.033Z,96079.00
2023-03-21T08:04:14.020Z,96077.00
2023-03-21T08:05:14.020Z,96077.00
2023-03-21T08:06:14.029Z,96075.00
2023-03-21T08:07:13.027Z,96075.00
2023-03-21T08:08:13.083Z,96075.00
2023-03-21T08:09:14.089Z,96071.00
2023-03-21T08:10:14.076Z,96065.00
2023-03-21T08:11:14.123Z,96063.00
2023-03-21T08:12:14.196Z,96063.00
2023-03-21T08:13:14.168Z,96067.00
2023-03-21T08:14:14.134Z,96065.00
2023-03-21T08:15:14.156Z,96063.00
2023-03-21T08:16:14.179Z,96067.00
2023-03-21T08:17:14.254Z,96065.00
2023-03-21T08:18:14.293Z,96063.00
2023-03-21T08:19:14.372Z,96061.00
2023-03-21T08:20:14.376Z,96061.00
2023-03-21T08:21:14.432Z,96059.00
2023-03-21T08:22:13.504Z,96059.00
2023-03-21T08:23:14.518Z,96057.00
2023-03-21T08:24:14.536Z,96057.00
2023-03-21T08:25:14.573Z,96053.00
2023-03-21T08:26:14.597Z,96051.00
2023-03-21T08:27:14.689Z,96049.00
2023-03-21T08:28:14.691Z,96051.00
2023-03-21T08:29:14.650Z,96049.00
2023-03-21T08:30:14.685Z,96051.00
2023-03-21T08:31:14.732Z,96051.00
2023-03-21T08:32:14.729Z,96049.00
2023-03-21T08:33:14.678Z,96049.00
2023-03-21T08:34:13.687Z,96047.00
2023-03-21T08:35:14.668Z,96047.00
2023-03-21T08:36:14.737Z,96047.00
2023-03-21T08:37:13.687Z,96045.00
2023-03-21T08:38:14.677Z,96049.00
2023-03-21T08:39:13.713Z,96047.00
2023-03-21T08:40:13.705Z,96047.00
2023-03-21T08:41:13.706Z,96047.00
2023-03-21T08:42:13.692Z,96045.00
2023-03-21T08:43:15.037Z,96041.00
2023-03-21T08:44:14.689Z,96043.00
2023-03-21T08:45:14.874Z,96041.00
2023-03-21T08:46:13.708Z,96039.00
2023-03-21T08:47:14.718Z,96038.00
2023-03-21T08:48:14.784Z,96038.00
2023-03-21T08:49:14.742Z,96038.00
2023-03-21T08:50:14.845Z,96038.00
2023-03-21T08:51:14.765Z,96045.00
2023-03-21T08:52:14.753Z,96039.00
2023-03-21T08:53:13.756Z,96043.00
2023-03-21T08:54:14.789Z,96039.00
2023-03-21T08:55:14.863Z,96039.00
2023-03-21T08:56:14.881Z,96038.00
2023-03-21T08:57:14.940Z,96039.00
2023-03-21T08:58:14.003Z,96030.00
2023-03-21T08:59:14.045Z,96026.00
2023-03-21T09:00:15.311Z,96030.00
2023-03-21T09:01:15.113Z,96028.00
2023-03-21T09:02:14.128Z,96030.00
2023-03-21T09:03:15.253Z,96030.00
2023-03-21T09:04:15.204Z,96032.00
2023-03-21T09:05:15.278Z,96034.00
2023-03-21T09:06:15.191Z,96028.00
2023-03-21T09:07:15.186Z,96030.00
2023-03-21T09:08:15.173Z,96030.00
2023-03-21T09:09:15.238Z,96028.00
2023-03-21T09:10:20.970Z,96028.00
2023-03-21T09:11:15.212Z,96024.00
2023-03-21T09:12:15.186Z,96028.00
2023-03-21T09:13:15.185Z,96028.00
2023-03-21T09:14:15.172Z,96024.00
2023-03-21T09:15:15.210Z,96026.00
2023-03-21T09:16:15.188Z,96024.00
2023-03-21T09:17:15.165Z,96022.00
2023-03-21T09:18:15.175Z,96024.00
2023-03-21T09:19:15.143Z,96024.00
2023-03-21T09:21:15.125Z,96020.00
2023-03-21T09:22:14.136Z,96020.00
2023-03-21T09:23:15.223Z,96022.00
2023-03-21T09:24:15.093Z,96024.00
2023-03-21T09:25:15.105Z,96022.00
2023-03-21T09:26:15.376Z,96022.00
2023-03-21T09:27:15.126Z,96022.00
2023-03-21T09:28:15.068Z,96024.00
2023-03-21T09:29:16.205Z,96024.00
2023-03-21T09:30:15.054Z,96022.00
2023-03-21T09:31:15.382Z,96022.00
2023-03-21T09:32:15.063Z,96020.00
2023-03-21T09:33:15.055Z,96020.00
2023-03-21T09:34:15.037Z,96020.00
2023-03-21T09:35:15.089Z,96020.00
2023-03-21T09:36:15.297Z,96016.00
2023-03-21T09:37:15.241Z,96014.00
2023-03-21T09:38:15.269Z,96018.00
2023-03-21T09:39:14.358Z,96014.00
2023-03-21T09:40:15.448Z,96014.00
2023-03-21T09:41:14.765Z,96016.00
2023-03-21T09:42:15.951Z,96012.00
2023-03-21T09:43:15.569Z,96014.00
2023-03-21T09:44:15.635Z,96014.00
2023-03-21T09:45:14.684Z,96014.00
2023-03-21T09:46:15.805Z,96012.00
2023-03-21T09:47:15.782Z,96014.00
2023-03-21T09:48:15.906Z,96014.00
2023-03-21T09:49:15.924Z,96008.00
2023-03-21T09:50:15.968Z,96010.00
2023-03-21T09:51:16.055Z,96008.00
2023-03-21T09:52:16.073Z,96008.00
2023-03-21T09:53:15.093Z,96006.00
2023-03-21T09:54:16.243Z,96004.00
2023-03-21T09:55:16.286Z,96006.00
2023-03-21T09:56:16.370Z,96002.00
2023-03-21T09:57:15.307Z,96000.00
2023-03-21T09:58:16.438Z,95998.00
2023-03-21T09:59:16.388Z,95998.00
2023-03-21T10:00:16.458Z,95996.00
2023-03-21T10:01:15.687Z,95996.00
2023-03-21T10:02:15.563Z,95998.00
2023-03-21T10:03:16.624Z,95998.00
2023-03-21T10:04:15.765Z,95998.00
2023-03-21T10:05:16.692Z,95996.00
2023-03-21T10:06:16.742Z,95994.00
2023-03-21T10:07:16.821Z,95998.00
2023-03-21T10:08:16.830Z,95992.00
2023-03-21T10:09:15.890Z,95992.00
2023-03-21T10:10:16.937Z,95992.00
2023-03-21T10:11:15.989Z,95992.00
2023-03-21T10:12:17.037Z,95989.00
2023-03-21T10:13:16.095Z,95987.00
2023-03-21T10:14:17.129Z,95983.00
2023-03-21T10:15:16.241Z,95985.00
2023-03-21T10:16:17.417Z,95983.00
2023-03-21T10:18:17.259Z,95981.00
2023-03-21T10:19:17.294Z,95981.00
2023-03-21T10:20:17.300Z,95981.00
2023-03-21T10:21:37.385Z,95979.00
2023-03-21T10:22:17.319Z,95975.00
2023-03-21T10:23:17.309Z,95973.00
2023-03-21T10:24:17.306Z,95973.00
2023-03-21T10:25:16.319Z,95973.00
2023-03-21T10:26:17.583Z,95971.00
2023-03-21T10:27:16.280Z,95969.00
2023-03-21T10:28:17.282Z,95967.00
2023-03-21T10:29:16.308Z,95967.00
2023-03-21T10:30:17.326Z,95963.00
2023-03-21T10:31:17.348Z,95963.00
2023-03-21T10:32:17.266Z,95961.00
2023-03-21T10:33:17.318Z,95963.00
2023-03-21T10:34:17.259Z,95959.00
2023-03-21T10:35:17.269Z,95963.00
2023-03-21T10:36:17.313Z,95959.00
2023-03-21T10:37:17.316Z,95959.00
2023-03-21T10:38:16.404Z,95959.00
2023-03-21T10:39:17.448Z,95957.00
2023-03-21T10:40:17.472Z,95961.00
2023-03-21T10:41:17.883Z,95961.00
2023-03-21T10:42:17.555Z,95959.00
2023-03-21T10:43:17.595Z,95959.00
2023-03-21T10:44:17.658Z,95965.00
2023-03-21T10:45:16.698Z,95957.00
2023-03-21T10:46:18.077Z,95959.00
2023-03-21T10:47:17.027Z,95957.00
2023-03-21T10:48:18.047Z,95955.00
2023-03-21T10:49:17.824Z,95955.00
2023-03-21T10:50:17.983Z,95957.00
2023-03-21T10:51:18.404Z,95955.00
2023-03-21T10:52:18.004Z,95951.00
2023-03-21T10:53:18.018Z,95953.00
2023-03-21T10:54:18.008Z,95955.00
2023-03-21T10:55:18.051Z,95951.00
2023-03-21T10:56:18.095Z,95949.00
2023-03-21T10:57:17.174Z,95949.00
2023-03-21T10:58:18.139Z,95949.00
2023-03-21T10:59:18.833Z,95951.00
2023-03-21T11:00:17.131Z,95947.00
2023-03-21T11:01:18.166Z,95945.00
2023-03-21T11:02:18.297Z,95945.00
2023-03-21T11:03:18.224Z,95945.00
2023-03-21T11:04:18.224Z,95944.00
2023-03-21T11:05:20.500Z,95945.00
2023-03-21T11:06:18.234Z,95944.00
2023-03-21T11:07:18.225Z,95942.00
2023-03-21T11:08:18.253Z,95942.00
2023-03-21T11:09:18.205Z,95936.00
2023-03-21T11:10:28.057Z,95932.00
2023-03-21T11:11:19.347Z,95932.00
2023-03-21T11:12:18.184Z,95932.00
2023-03-21T11:13:18.196Z,95932.00
2023-03-21T11:14:18.171Z,95930.00
2023-03-21T11:15:17.170Z,95930.00
2023-03-21T11:16:18.233Z,95928.00
2023-03-21T11:17:18.176Z,95924.00
2023-03-21T11:18:18.155Z,95922.00
2023-03-21T11:19:17.289Z,95922.00
2023-03-21T11:20:18.237Z,95914.00
2023-03-21T11:21:17.153Z,95914.00
2023-03-21T11:22:17.117Z,95912.00
2023-03-21T11:23:20.518Z,95914.00
2023-03-21T11:24:18.100Z,95912.00
2023-03-21T11:25:18.090Z,95912.00
2023-03-21T11:26:18.115Z,95912.00
2023-03-21T11:27:17.091Z,95910.00
2023-03-21T11:28:18.081Z,95906.00
2023-03-21T11:29:18.442Z,95908.00
2023-03-21T11:30:18.141Z,95904.00
2023-03-21T11:31:18.164Z,95902.00
2023-03-21T11:32:18.048Z,95900.00
2023-03-21T11:33:18.040Z,95900.00
2023-03-21T11:34:18.054Z,95898.00
2023-03-21T11:35:19.717Z,95898.00
2023-03-21T11:36:17.464Z,95894.00
2023-03-21T11:38:17.344Z,95896.00
2023-03-21T11:41:18.514Z,95890.00
2023-03-21T11:44:18.405Z,95883.00
2023-03-21T11:48:18.474Z,95877.00
2023-03-21T11:49:18.428Z,95881.00
2023-03-21T11:51:17.484Z,95875.00
2023-03-21T11:53:18.534Z,95869.00
2023-03-21T11:55:17.727Z,95867.00
2023-03-21T11:56:18.797Z,95863.00
2023-03-21T11:57:18.730Z,95865.00
2023-03-21T11:58:17.710Z,95863.00
2023-03-21T11:59:17.626Z,95861.00
2023-03-21T12:01:17.721Z,95855.00
2023-03-21T12:14:19.233Z,95830.00
2023-03-21T12:18:19.534Z,95824.00
2023-03-21T12:25:19.814Z,95808.00
2023-03-21T12:26:19.874Z,95806.00
2023-03-21T12:30:19.133Z,95800.00
2023-03-21T12:48:20.472Z,95779.00
2023-03-21T12:55:20.399Z,95769.00
2023-03-21T13:23:20.229Z,95738.00
2023-03-21T13:37:20.842Z,95730.00
2023-03-21T13:55:20.753Z,95706.00
2023-03-21T13:56:21.817Z,95704.00
2023-03-21T13:58:21.920Z,95702.00
2023-03-21T14:05:21.349Z,95696.00
2023-03-21T14:21:24.290Z,95688.00
2023-03-21T14:22:23.303Z,95688.00
2023-03-21T14:23:23.314Z,95688.00
2023-03-21T14:24:23.380Z,95687.00
2023-03-21T14:25:27.176Z,95685.00
2023-03-21T14:29:26.392Z,95685.00
2023-03-21T14:30:23.389Z,95685.00
2023-03-21T14:31:23.443Z,95687.00
2023-03-21T14:32:23.381Z,95683.00
2023-03-21T14:34:23.383Z,95681.00
2023-03-21T14:35:23.461Z,95681.00
2023-03-21T14:36:22.502Z,95681.00
2023-03-21T14:37:23.344Z,95681.00
2023-03-21T14:38:23.332Z,95679.00
2023-03-21T14:39:22.330Z,95677.00
2023-03-21T14:40:23.313Z,95675.00
2023-03-21T14:41:23.326Z,95673.00
2023-03-21T14:42:23.316Z,95673.00
2023-03-21T14:43:22.324Z,95673.00
2023-03-21T14:44:23.304Z,95673.00
2023-03-21T14:46:23.339Z,95671.00
2023-03-21T14:47:23.315Z,95669.00
2023-03-21T14:48:22.369Z,95667.00
2023-03-21T14:49:23.280Z,95667.00
2023-03-21T14:50:23.260Z,95665.00
2023-03-21T14:51:23.383Z,95665.00
2023-03-21T14:52:22.245Z,95665.00
2023-03-21T14:53:23.228Z,95655.00
2023-03-21T14:54:23.226Z,95657.00
2023-03-21T14:55:23.226Z,95655.00
2023-03-21T14:56:23.230Z,95655.00
2023-03-21T14:57:23.216Z,95653.00
2023-03-21T14:58:23.228Z,95653.00
2023-03-21T14:59:23.193Z,95653.00
2023-03-21T15:00:23.190Z,95653.00
2023-03-21T15:01:23.263Z,95651.00
2023-03-21T15:02:23.212Z,95653.00
2023-03-21T15:03:22.184Z,95655.00
2023-03-21T15:04:23.177Z,95653.00
2023-03-21T15:05:22.238Z,95657.00
2023-03-21T15:06:23.223Z,95657.00
2023-03-21T15:07:23.297Z,95657.00
2023-03-21T15:08:23.135Z,95667.00
2023-03-21T15:09:23.157Z,95665.00
2023-03-21T15:10:23.137Z,95657.00
2023-03-21T15:11:23.126Z,95665.00
2023-03-21T15:12:23.127Z,95665.00
2023-03-21T15:13:23.156Z,95655.00
2023-03-21T15:14:23.100Z,95655.00
2023-03-21T15:15:22.103Z,95657.00
2023-03-21T15:16:23.155Z,95657.00
2023-03-21T15:17:23.078Z,95657.00
2023-03-21T15:18:23.076Z,95653.00
2023-03-21T15:19:23.335Z,95657.00
2023-03-21T15:20:23.129Z,95655.00
2023-03-21T15:21:23.123Z,95657.00
2023-03-21T15:22:23.137Z,95657.00
2023-03-21T15:23:23.332Z,95655.00
2023-03-21T15:24:23.290Z,95655.00
2023-03-21T15:25:22.246Z,95655.00
2023-03-21T15:26:22.288Z,95653.00
2023-03-21T15:27:23.232Z,95653.00
2023-03-21T15:28:22.245Z,95653.00
2023-03-21T15:29:23.235Z,95651.00
2023-03-21T15:30:23.248Z,95651.00
2023-03-21T15:31:23.380Z,95651.00
2023-03-21T15:32:23.241Z,95653.00
2023-03-21T15:33:23.241Z,95651.00
2023-03-21T15:34:23.245Z,95651.00
2023-03-21T15:35:23.251Z,95651.00
2023-03-21T15:36:23.340Z,95651.00
2023-03-21T15:37:23.242Z,95651.00
2023-03-21T15:38:23.259Z,95651.00
2023-03-21T15:39:23.375Z,95651.00
2023-03-21T15:40:23.262Z,95651.00
2023-03-21T15:41:23.289Z,95649.00
2023-03-21T15:42:23.299Z,95651.00
2023-03-21T15:43:23.290Z,95651.00
2023-03-21T15:44:23.271Z,95647.00
2023-03-21T15:45:22.276Z,95647.00
2023-03-21T15:46:23.791Z,95649.00
2023-03-21T15:47:22.293Z,95649.00
2023-03-21T15:54:22.330Z,95647.00
2023-03-21T15:57:23.354Z,95647.00
2023-03-21T16:00:22.435Z,95647.00
2023-03-21T16:01:23.479Z,95649.00
2023-03-21T16:07:23.493Z,95647.00
2023-03-21T16:13:23.592Z,95651.00
2023-03-21T16:16:22.658Z,95651.00
2023-03-21T16:18:23.598Z,95653.00
2023-03-21T16:21:23.635Z,95653.00
